Carnival Freedom — 3EBL5 — position and weather

sailwx.info

Track history (hours):
 
Tides and Currents Weather Stations Pressure Air Temp Water Temp Dewpoint Dewpoint Depression Visibility Wind Speed Wind Dir Waves Ship Positions

Carnival Freedom

Last reported at 2018-Dec-11 13:00 UTC. Time now 2018-Dec-12 14:25 UTC.
Position N 19°30' W 082°06'.

Type: Ship. MMSI: 371154000.

Wind from 060 at 25 knots

Barometer 1019.0 mb
Air temperature 26.1 ° C
Visibility: greater than 10.8 NM
Dewpoint 14.9 ° C

Date/timePositionNaut miles runAvg speedWind from/ knotsBaromVisibWave heightAir tempDewpointWater temp
2018-Dec-11 13:00N 19°30' W 082°06'28319.1 060 / 251019.010.8 26.114.9
2018-Dec-10 22:11N 20°35' W 086°59'316.8
2018-Dec-10 22:00N 20°32' W 086°60'4 7.2
2018-Dec-10 21:30N 20°29' W 086°59'0 0.1
2018-Dec-10 20:59N 20°29' W 086°59'0 0.0
2018-Dec-10 20:29N 20°29' W 086°59'0 0.0
2018-Dec-10 19:59N 20°29' W 086°59'0 0.0
2018-Dec-10 19:29N 20°29' W 086°59'0 0.0
2018-Dec-10 18:59N 20°29' W 086°59'0 0.0
2018-Dec-10 18:29N 20°29' W 086°59'0 0.0
2018-Dec-10 17:59N 20°29' W 086°59'0 0.0
2018-Dec-10 17:29N 20°29' W 086°59'0 0.0
2018-Dec-10 16:59N 20°29' W 086°59'0 0.0
2018-Dec-10 16:29N 20°29' W 086°59'0 0.0
2018-Dec-10 15:59N 20°29' W 086°59'0 0.0
2018-Dec-10 15:29N 20°29' W 086°59'0 0.0
2018-Dec-10 14:56N 20°29' W 086°59'0 0.0
2018-Dec-10 14:29N 20°29' W 086°59'0 0.0
2018-Dec-10 13:59N 20°29' W 086°59'0 0.0
2018-Dec-10 13:29N 20°29' W 086°59'0 0.0
2018-Dec-10 12:59N 20°29' W 086°59'0 0.2
2018-Dec-10 12:30N 20°29' W 086°59'4 7.2
2018-Dec-10 12:00N 20°32' W 086°60'713.2
2018-Dec-10 11:30N 20°38' W 086°56'41418.4
2018-Dec-09 13:00N 26°30' W 090°54'26518.4 310 / 251017.010.8 19.0 6.725.0
2018-Dec-08 22:37N 29°21' W 094°43'215.9
2018-Dec-08 22:30N 29°21' W 094°45'3 5.7
2018-Dec-08 21:59N 29°19' W 094°48'0 0.0
2018-Dec-08 21:25N 29°19' W 094°48'0 0.0
2018-Dec-08 21:00N 29°19' W 094°48'0 0.0
2018-Dec-08 20:18N 29°19' W 094°48'0 0.0
2018-Dec-08 20:00N 29°19' W 094°48'0 0.0
2018-Dec-08 19:27N 29°19' W 094°48'0 0.0
2018-Dec-08 18:54N 29°19' W 094°48'0 0.0
2018-Dec-08 18:27N 29°19' W 094°48'0 0.0
2018-Dec-08 18:00N 29°19' W 094°48'0 0.0
2018-Dec-08 17:30N 29°19' W 094°48'0 0.0
2018-Dec-08 16:57N 29°19' W 094°48'0 0.0
2018-Dec-08 16:30N 29°19' W 094°48'0 0.0
2018-Dec-08 16:00N 29°19' W 094°48'0 0.0
2018-Dec-08 15:30N 29°19' W 094°48'0 0.0
2018-Dec-08 15:00N 29°19' W 094°48'0 0.0
2018-Dec-08 14:21N 29°19' W 094°48'0 0.0
2018-Dec-08 14:01N 29°19' W 094°48'1 2.1
2018-Dec-08 13:31N 29°19' W 094°47'3 5.4
2018-Dec-08 13:01N 29°21' W 094°44'712.8
2018-Dec-08 12:27N 29°18' W 094°37'4 9.3
2018-Dec-08 12:00N 29°16' W 094°33'5915.5
2018-Dec-08 08:11N 28°42' W 093°37'15817.1
2018-Dec-07 23:00N 27°18' W 091°06'75568.6 130 / 191019.910.8 23.010.425.0
2018-Dec-07 12:00N 25°06' W 077°18'154 6.7 090 / 161024.010.8 22.0 9.026.0
2018-Dec-06 13:00N 24°42' W 080°06'6815.1 050 / 241022.010.8 22.0 3.4
2018-Dec-06 08:32N 25°39' W 079°26'118.1
2018-Dec-06 08:30N 25°40' W 079°26'50 1.1
2018-Dec-04 12:15N 26°23' W 078°58'416.9
2018-Dec-04 12:00N 26°21' W 079°02'917.5
2018-Dec-04 11:30N 26°17' W 079°11'917.9
2018-Dec-04 11:00N 26°13' W 079°19'917.9
2018-Dec-04 10:30N 26°07' W 079°27'1019.3
2018-Dec-04 10:00N 25°58' W 079°32'1019.5
2018-Dec-04 09:30N 25°49' W 079°36'1019.3
2018-Dec-04 09:00N 25°40' W 079°39'1019.7
2018-Dec-04 08:30N 25°31' W 079°42'1019.7
2018-Dec-04 08:00N 25°21' W 079°44'1019.6
2018-Dec-04 07:31N 25°12' W 079°47'1019.4
2018-Dec-04 07:01N 25°02' W 079°51'1019.8
2018-Dec-04 06:30N 24°54' W 079°56'1121.1
2018-Dec-04 06:00N 24°45' W 080°03'1121.4
2018-Dec-04 05:30N 24°40' W 080°13'1121.4
2018-Dec-04 05:01N 24°34' W 080°23'1121.2
2018-Dec-04 04:30N 24°29' W 080°33'1121.4
2018-Dec-04 04:00N 24°24' W 080°44'1121.5
2018-Dec-04 03:31N 24°21' W 080°55'1121.1
2018-Dec-04 03:00N 24°20' W 081°06'1020.4
2018-Dec-04 02:31N 24°20' W 081°18'1019.2
2018-Dec-04 01:59N 24°20' W 081°29'918.4
2018-Dec-04 01:31N 24°20' W 081°38'1214.2
2018-Dec-04 00:41N 24°28' W 081°48'47 3.7
2018-Dec-03 12:00N 24°12' W 082°36'54119.9 190 / 281014.910.8 30.025.831.0
2018-Dec-02 08:46N 27°36' W 091°53'919.3
2018-Dec-02 08:19N 27°39' W 092°02'619.1
2018-Dec-02 08:00N 27°41' W 092°08'1019.0
2018-Dec-02 07:30N 27°45' W 092°18'918.9
2018-Dec-02 07:00N 27°49' W 092°28'918.1
2018-Dec-02 06:30N 27°54' W 092°37'918.8
2018-Dec-02 06:00N 28°01' W 092°43'1019.0
2018-Dec-02 05:30N 28°09' W 092°50'919.0
2018-Dec-02 05:00N 28°15' W 092°57'918.9
2018-Dec-02 04:30N 28°21' W 093°06'918.8
2018-Dec-02 04:00N 28°26' W 093°15'918.6
2018-Dec-02 03:30N 28°32' W 093°23'918.4
2018-Dec-02 03:00N 28°37' W 093°32'918.5
2018-Dec-02 02:30N 28°42' W 093°40'918.3
2018-Dec-02 02:00N 28°48' W 093°49'918.2
2018-Dec-02 01:30N 28°53' W 093°58'918.1
2018-Dec-02 01:00N 28°58' W 094°06'917.6
2018-Dec-02 00:30N 29°03' W 094°14'917.3
2018-Dec-02 00:00N 29°07' W 094°23'917.4
2018-Dec-01 23:30N 29°12' W 094°31'815.9
2018-Dec-01 23:00N 29°18' W 094°37'713.9
2018-Dec-01 22:30N 29°21' W 094°44'4 6.7
2018-Dec-01 21:59N 29°19' W 094°48'0 0.0
2018-Dec-01 21:29N 29°19' W 094°48'0 0.0
2018-Dec-01 21:00N 29°19' W 094°48'0 0.0
2018-Dec-01 20:28N 29°19' W 094°48'0 0.0
2018-Dec-01 19:58N 29°19' W 094°48'0 0.0
2018-Dec-01 19:28N 29°19' W 094°48'0 0.0
2018-Dec-01 18:59N 29°19' W 094°48'0 0.0
2018-Dec-01 18:29N 29°19' W 094°48'0 0.0
2018-Dec-01 17:59N 29°19' W 094°48'0 0.0
2018-Dec-01 17:29N 29°19' W 094°48'0 0.0
2018-Dec-01 16:58N 29°19' W 094°48'0 0.0
2018-Dec-01 16:28N 29°19' W 094°48'0 0.0
2018-Dec-01 15:58N 29°19' W 094°48'0 0.0
2018-Dec-01 15:28N 29°19' W 094°48'0 0.0
2018-Dec-01 15:00N 29°19' W 094°48'0 0.0
2018-Dec-01 14:30N 29°19' W 094°48'0 0.0
2018-Dec-01 13:59N 29°19' W 094°48'1 1.5
2018-Dec-01 13:30N 29°19' W 094°47'2 3.0
2018-Dec-01 13:00N 29°20' W 094°46'  
Track history (hours):
 
Tides and Currents Weather Stations Pressure Air Temp Water Temp Dewpoint Dewpoint Depression Visibility Wind Speed Wind Dir Waves Ship Positions

Carnival Freedom

Last reported at 2018-Dec-11 13:00 UTC. Time now 2018-Dec-12 14:25 UTC.
Position N 19°30' W 082°06'.

Type: Ship. MMSI: 371154000.

Wind from 060 at 25 knots

Barometer 1019.0 mb
Air temperature 26.1 ° C
Visibility: greater than 10.8 NM
Dewpoint 14.9 ° C

Date/timePositionNaut miles runAvg speedWind from/ knotsBaromVisibWave heightAir tempDewpointWater temp
2018-Dec-11 13:00N 19°30' W 082°06'28319.1 060 / 251019.010.8 26.114.9
2018-Dec-10 22:11N 20°35' W 086°59'316.8
2018-Dec-10 22:00N 20°32' W 086°60'4 7.2
2018-Dec-10 21:30N 20°29' W 086°59'0 0.1
2018-Dec-10 20:59N 20°29' W 086°59'0 0.0
2018-Dec-10 20:29N 20°29' W 086°59'0 0.0
2018-Dec-10 19:59N 20°29' W 086°59'0 0.0
2018-Dec-10 19:29N 20°29' W 086°59'0 0.0
2018-Dec-10 18:59N 20°29' W 086°59'0 0.0
2018-Dec-10 18:29N 20°29' W 086°59'0 0.0
2018-Dec-10 17:59N 20°29' W 086°59'0 0.0
2018-Dec-10 17:29N 20°29' W 086°59'0 0.0
2018-Dec-10 16:59N 20°29' W 086°59'0 0.0
2018-Dec-10 16:29N 20°29' W 086°59'0 0.0
2018-Dec-10 15:59N 20°29' W 086°59'0 0.0
2018-Dec-10 15:29N 20°29' W 086°59'0 0.0
2018-Dec-10 14:56N 20°29' W 086°59'0 0.0
2018-Dec-10 14:29N 20°29' W 086°59'0 0.0
2018-Dec-10 13:59N 20°29' W 086°59'0 0.0
2018-Dec-10 13:29N 20°29' W 086°59'0 0.0
2018-Dec-10 12:59N 20°29' W 086°59'0 0.2
2018-Dec-10 12:30N 20°29' W 086°59'4 7.2
2018-Dec-10 12:00N 20°32' W 086°60'713.2
2018-Dec-10 11:30N 20°38' W 086°56'41418.4
2018-Dec-09 13:00N 26°30' W 090°54'26518.4 310 / 251017.010.8 19.0 6.725.0
2018-Dec-08 22:37N 29°21' W 094°43'215.9
2018-Dec-08 22:30N 29°21' W 094°45'3 5.7
2018-Dec-08 21:59N 29°19' W 094°48'0 0.0
2018-Dec-08 21:25N 29°19' W 094°48'0 0.0
2018-Dec-08 21:00N 29°19' W 094°48'0 0.0
2018-Dec-08 20:18N 29°19' W 094°48'0 0.0
2018-Dec-08 20:00N 29°19' W 094°48'0 0.0
2018-Dec-08 19:27N 29°19' W 094°48'0 0.0
2018-Dec-08 18:54N 29°19' W 094°48'0 0.0
2018-Dec-08 18:27N 29°19' W 094°48'0 0.0
2018-Dec-08 18:00N 29°19' W 094°48'0 0.0
2018-Dec-08 17:30N 29°19' W 094°48'0 0.0
2018-Dec-08 16:57N 29°19' W 094°48'0 0.0
2018-Dec-08 16:30N 29°19' W 094°48'0 0.0
2018-Dec-08 16:00N 29°19' W 094°48'0 0.0
2018-Dec-08 15:30N 29°19' W 094°48'0 0.0
2018-Dec-08 15:00N 29°19' W 094°48'0 0.0
2018-Dec-08 14:21N 29°19' W 094°48'0 0.0
2018-Dec-08 14:01N 29°19' W 094°48'1 2.1
2018-Dec-08 13:31N 29°19' W 094°47'3 5.4
2018-Dec-08 13:01N 29°21' W 094°44'712.8
2018-Dec-08 12:27N 29°18' W 094°37'4 9.3
2018-Dec-08 12:00N 29°16' W 094°33'5915.5
2018-Dec-08 08:11N 28°42' W 093°37'15817.1
2018-Dec-07 23:00N 27°18' W 091°06'75568.6 130 / 191019.910.8 23.010.425.0
2018-Dec-07 12:00N 25°06' W 077°18'154 6.7 090 / 161024.010.8 22.0 9.026.0
2018-Dec-06 13:00N 24°42' W 080°06'6815.1 050 / 241022.010.8 22.0 3.4
2018-Dec-06 08:32N 25°39' W 079°26'118.1
2018-Dec-06 08:30N 25°40' W 079°26'50 1.1
2018-Dec-04 12:15N 26°23' W 078°58'416.9
2018-Dec-04 12:00N 26°21' W 079°02'917.5
2018-Dec-04 11:30N 26°17' W 079°11'917.9
2018-Dec-04 11:00N 26°13' W 079°19'917.9
2018-Dec-04 10:30N 26°07' W 079°27'1019.3
2018-Dec-04 10:00N 25°58' W 079°32'1019.5
2018-Dec-04 09:30N 25°49' W 079°36'1019.3
2018-Dec-04 09:00N 25°40' W 079°39'1019.7
2018-Dec-04 08:30N 25°31' W 079°42'1019.7
2018-Dec-04 08:00N 25°21' W 079°44'1019.6
2018-Dec-04 07:31N 25°12' W 079°47'1019.4
2018-Dec-04 07:01N 25°02' W 079°51'1019.8
2018-Dec-04 06:30N 24°54' W 079°56'1121.1
2018-Dec-04 06:00N 24°45' W 080°03'1121.4
2018-Dec-04 05:30N 24°40' W 080°13'1121.4
2018-Dec-04 05:01N 24°34' W 080°23'1121.2
2018-Dec-04 04:30N 24°29' W 080°33'1121.4
2018-Dec-04 04:00N 24°24' W 080°44'1121.5
2018-Dec-04 03:31N 24°21' W 080°55'1121.1
2018-Dec-04 03:00N 24°20' W 081°06'1020.4
2018-Dec-04 02:31N 24°20' W 081°18'1019.2
2018-Dec-04 01:59N 24°20' W 081°29'918.4
2018-Dec-04 01:31N 24°20' W 081°38'1214.2
2018-Dec-04 00:41N 24°28' W 081°48'47 3.7
2018-Dec-03 12:00N 24°12' W 082°36'54119.9 190 / 281014.910.8 30.025.831.0
2018-Dec-02 08:46N 27°36' W 091°53'919.3
2018-Dec-02 08:19N 27°39' W 092°02'619.1
2018-Dec-02 08:00N 27°41' W 092°08'1019.0
2018-Dec-02 07:30N 27°45' W 092°18'918.9
2018-Dec-02 07:00N 27°49' W 092°28'918.1
2018-Dec-02 06:30N 27°54' W 092°37'918.8
2018-Dec-02 06:00N 28°01' W 092°43'1019.0
2018-Dec-02 05:30N 28°09' W 092°50'919.0
2018-Dec-02 05:00N 28°15' W 092°57'918.9
2018-Dec-02 04:30N 28°21' W 093°06'918.8
2018-Dec-02 04:00N 28°26' W 093°15'918.6
2018-Dec-02 03:30N 28°32' W 093°23'918.4
2018-Dec-02 03:00N 28°37' W 093°32'918.5
2018-Dec-02 02:30N 28°42' W 093°40'918.3
2018-Dec-02 02:00N 28°48' W 093°49'918.2
2018-Dec-02 01:30N 28°53' W 093°58'918.1
2018-Dec-02 01:00N 28°58' W 094°06'917.6
2018-Dec-02 00:30N 29°03' W 094°14'917.3
2018-Dec-02 00:00N 29°07' W 094°23'917.4
2018-Dec-01 23:30N 29°12' W 094°31'815.9
2018-Dec-01 23:00N 29°18' W 094°37'713.9
2018-Dec-01 22:30N 29°21' W 094°44'4 6.7
2018-Dec-01 21:59N 29°19' W 094°48'0 0.0
2018-Dec-01 21:29N 29°19' W 094°48'0 0.0
2018-Dec-01 21:00N 29°19' W 094°48'0 0.0
2018-Dec-01 20:28N 29°19' W 094°48'0 0.0
2018-Dec-01 19:58N 29°19' W 094°48'0 0.0
2018-Dec-01 19:28N 29°19' W 094°48'0 0.0
2018-Dec-01 18:59N 29°19' W 094°48'0 0.0
2018-Dec-01 18:29N 29°19' W 094°48'0 0.0
2018-Dec-01 17:59N 29°19' W 094°48'0 0.0
2018-Dec-01 17:29N 29°19' W 094°48'0 0.0
2018-Dec-01 16:58N 29°19' W 094°48'0 0.0
2018-Dec-01 16:28N 29°19' W 094°48'0 0.0
2018-Dec-01 15:58N 29°19' W 094°48'0 0.0
2018-Dec-01 15:28N 29°19' W 094°48'0 0.0
2018-Dec-01 15:00N 29°19' W 094°48'0 0.0
2018-Dec-01 14:30N 29°19' W 094°48'0 0.0
2018-Dec-01 13:59N 29°19' W 094°48'1 1.5
2018-Dec-01 13:30N 29°19' W 094°47'2 3.0
2018-Dec-01 13:00N 29°20' W 094°46'  

Dump ship's entire track history